Time;durP1;ratioP1;P1;durP2;ratioP2;P2;SDS_P1;SDS_P2;PMS_P1;PMS_P2;Temp;Humidity;BMP_temperature;BMP_pressure;BME280_temperature;BME280_humidity;BME280_pressure;Samples;Min_cycle;Max_cycle;Signal;HPM_P1;HPM_P2
2021/04/16 00:00:55;;;;;;;4.40;3.20;;;;;;;0.30;76.89;99490.63;115014;1193;64391;-88
2021/04/16 00:03:22;;;;;;;4.90;3.60;;;;;;;0.32;76.74;99490.58;114379;1193;64362;-92
2021/04/16 00:05:49;;;;;;;5.23;3.40;;;;;;;0.32;76.88;99485.32;114365;1193;64368;-90
2021/04/16 00:08:24;;;;;;;5.00;3.60;;;;;;;0.32;76.63;99486.22;114511;1193;64545;-88
2021/04/16 00:10:59;;;;;;;3.73;3.20;;;;;;;0.34;76.83;99483.55;114830;1193;64433;-88
2021/04/16 00:13:26;;;;;;;3.77;3.30;;;;;;;0.34;76.61;99484.41;114205;1193;64775;-90
2021/04/16 00:15:55;;;;;;;4.15;2.95;;;;;;;0.35;77.07;99485.27;114654;1192;64364;-89
2021/04/16 00:18:27;;;;;;;3.20;2.90;;;;;;;0.35;77.30;99478.24;114810;1193;64337;-89
2021/04/16 00:20:56;;;;;;;3.75;2.90;;;;;;;0.35;76.87;99480.02;114887;1193;64420;-89
2021/04/16 00:23:23;;;;;;;3.65;2.90;;;;;;;0.35;76.56;99480.88;114692;1193;64378;-88
2021/04/16 00:25:50;;;;;;;2.93;2.60;;;;;;;0.36;76.27;99481.73;114398;1193;64368;-90
2021/04/16 00:28:16;;;;;;;3.40;2.60;;;;;;;0.37;76.37;99476.44;114815;1193;64483;-89
2021/04/16 00:30:55;;;;;;;3.37;2.60;;;;;;;0.37;76.47;99479.06;114728;1193;64378;-89
2021/04/16 00:33:22;;;;;;;2.80;2.30;;;;;;;0.35;77.06;99469.50;114549;1193;64458;-88
2021/04/16 00:35:49;;;;;;;3.60;2.73;;;;;;;0.35;77.78;99469.50;114702;1193;64442;-87
2021/04/16 00:38:22;;;;;;;3.47;2.50;;;;;;;0.34;76.39;99462.53;114575;1193;64369;-89
2021/04/16 00:40:55;;;;;;;3.33;2.90;;;;;;;0.35;76.97;99464.25;114467;1193;64346;-88
2021/04/16 00:43:25;;;;;;;3.20;2.70;;;;;;;0.35;76.74;99454.60;114702;1193;64372;-88
2021/04/16 00:46:08;;;;;;;2.55;2.20;;;;;;;0.37;76.72;99465.92;114620;1193;65846;-88
2021/04/16 00:48:38;;;;;;;3.25;2.75;;;;;;;0.38;77.50;99446.66;114619;1193;64519;-89
2021/04/16 00:51:07;;;;;;;3.23;2.40;;;;;;;0.38;77.26;99448.39;114211;1195;64391;-91
2021/04/16 00:53:35;;;;;;;2.75;2.35;;;;;;;0.41;76.38;99450.97;114841;1196;64343;-86
2021/04/16 00:56:02;;;;;;;3.60;2.50;;;;;;;0.42;76.68;99452.69;114252;1193;64337;-88
2021/04/16 00:58:31;;;;;;;3.40;2.20;;;;;;;0.41;76.72;99443.08;114738;1196;64518;-89
2021/04/16 01:01:01;;;;;;;2.55;2.20;;;;;;;0.43;77.49;99449.16;115287;1193;64377;-87
2021/04/16 01:03:28;;;;;;;2.30;2.10;;;;;;;0.44;76.40;99456.13;114566;1193;64359;-88
2021/04/16 01:06:03;;;;;;;4.80;2.67;;;;;;;0.44;76.88;99449.11;114617;1193;64385;-88
2021/04/16 01:08:30;;;;;;;;;;;;;;;0.46;76.99;99456.98;114225;1200;64385;-89
2021/04/16 01:10:56;;;;;;;3.70;2.30;;;;;;;0.47;76.91;99458.70;114366;1193;64493;-93
2021/04/16 01:13:24;;;;;;;2.40;2.20;;;;;;;0.44;77.12;99446.48;114510;1193;64352;-86
2021/04/16 01:15:56;;;;;;;2.87;2.57;;;;;;;0.44;76.46;99453.50;115299;1193;64458;-89
2021/04/16 01:18:27;;;;;;;3.97;2.57;;;;;;;0.43;77.87;99446.52;114943;1193;64489;-90
2021/04/16 01:20:57;;;;;;;2.95;2.65;;;;;;;0.43;77.24;99446.52;114817;1193;64435;-89
2021/04/16 01:23:46;;;;;;;3.05;2.35;;;;;;;0.44;76.87;99442.99;114331;1193;64493;-89
2021/04/16 01:26:16;;;;;;;2.65;2.20;;;;;;;0.44;77.01;99445.61;114728;1193;64368;-89
2021/04/16 01:28:44;;;;;;;3.17;2.87;;;;;;;0.45;76.75;99457.88;114700;1196;64400;-87
2021/04/16 01:31:15;;;;;;;2.43;2.20;;;;;;;0.47;77.88;99448.19;114859;1193;64295;-87
2021/04/16 01:33:45;;;;;;;2.90;2.60;;;;;;;0.47;77.31;99449.05;114613;1193;64471;-89
2021/04/16 01:36:15;;;;;;;3.77;2.90;;;;;;;0.49;77.16;99446.38;114542;1193;64385;-92
2021/04/16 01:38:45;;;;;;;2.90;2.30;;;;;;;0.50;76.66;99445.47;114857;1193;64394;-92
2021/04/16 01:41:14;;;;;;;3.00;2.70;;;;;;;0.52;76.39;99448.94;114367;1193;65853;-91
2021/04/16 01:43:43;;;;;;;3.97;2.80;;;;;;;0.51;76.43;99442.83;114613;1193;64390;-90
2021/04/16 01:46:18;;;;;;;2.57;2.23;;;;;;;0.51;77.18;99448.08;114670;1193;64419;-89
2021/04/16 01:48:55;;;;;;;2.90;2.50;;;;;;;0.51;76.55;99447.22;114892;1193;64496;-87
2021/04/16 01:51:33;;;;;;;3.27;2.70;;;;;;;0.50;77.31;99445.47;114878;1193;64391;-89
2021/04/16 01:54:15;;;;;;;3.30;2.70;;;;;;;0.50;77.13;99446.33;114677;1196;64347;-88
2021/04/16 01:56:44;;;;;;;3.65;2.65;;;;;;;0.52;77.09;99448.94;114367;1193;64403;-90
2021/04/16 01:59:26;;;;;;;2.90;2.57;;;;;;;0.52;77.21;99441.05;114897;1193;64346;-89
2021/04/16 02:01:52;;;;;;;3.25;2.65;;;;;;;0.56;76.56;99447.94;115187;1193;64420;-89
2021/04/16 02:04:21;;;;;;;3.20;2.40;;;;;;;0.58;77.30;99450.55;114375;1196;64404;-89
2021/04/16 02:06:53;;;;;;;2.73;2.50;;;;;;;0.59;77.31;99445.25;114727;1193;64381;-89
2021/04/16 02:09:28;;;;;;;4.53;2.70;;;;;;;0.60;76.60;99446.11;114902;1193;64497;-89
2021/04/16 02:11:55;;;;;;;5.05;2.65;;;;;;;0.58;76.84;99448.78;114597;1193;64364;-87
2021/04/16 02:14:25;;;;;;;3.00;2.50;;;;;;;0.57;77.40;99436.52;114389;1193;64837;-88
2021/04/16 02:16:57;;;;;;;4.90;2.90;;;;;;;0.59;76.92;99436.51;114577;1193;64381;-88
2021/04/16 02:19:24;;;;;;;4.40;2.85;;;;;;;0.59;77.41;99437.37;114623;1193;64452;-90
2021/04/16 02:21:51;;;;;;;3.93;3.10;;;;;;;0.58;77.33;99440.05;114869;1193;64340;-89
2021/04/16 02:24:18;;;;;;;3.97;3.30;;;;;;;0.58;76.94;99437.41;114333;1193;64400;-87
2021/04/16 02:26:44;;;;;;;3.85;3.25;;;;;;;0.56;76.37;99432.17;114338;1193;64413;-87
2021/04/16 02:29:13;;;;;;;3.60;3.20;;;;;;;0.59;77.27;99425.99;114497;1193;64442;-92
2021/04/16 02:31:42;;;;;;;4.50;3.63;;;;;;;0.59;77.74;99426.85;114826;1193;64700;-90
2021/04/16 02:34:21;;;;;;;3.90;3.17;;;;;;;0.60;76.73;99412.80;114341;1193;64343;-89
2021/04/16 02:36:51;;;;;;;4.80;3.25;;;;;;;0.61;76.79;99427.67;114625;1193;64366;-88
2021/04/16 02:39:19;;;;;;;3.85;3.45;;;;;;;0.61;76.86;99416.30;114242;1193;64394;-91
2021/04/16 02:41:46;;;;;;;3.80;3.40;;;;;;;0.61;76.58;99416.30;114502;1193;64366;-93
2021/04/16 02:44:13;;;;;;;5.03;3.67;;;;;;;0.62;77.58;99415.39;114732;1193;64401;-91
2021/04/16 02:46:40;;;;;;;4.30;3.03;;;;;;;0.62;77.51;99421.50;115038;1193;64384;-88
2021/04/16 02:49:07;;;;;;;6.03;4.33;;;;;;;0.63;76.86;99423.22;114281;1193;64509;-92
2021/04/16 02:51:34;;;;;;;4.53;3.67;;;;;;;0.64;77.18;99422.34;114586;1193;64368;-89
2021/04/16 02:54:02;;;;;;;4.97;3.50;;;;;;;0.65;76.55;99418.81;114850;1193;64340;-91
2021/04/16 02:56:28;;;;;;;5.40;4.00;;;;;;;0.65;77.29;99426.70;114908;1193;64414;-90
2021/04/16 02:58:56;;;;;;;6.50;4.27;;;;;;;0.66;76.69;99433.67;115155;1193;64369;-91
2021/04/16 03:01:23;;;;;;;5.00;3.67;;;;;;;0.67;77.00;99426.65;115129;1193;64240;-90
2021/04/16 03:03:50;;;;;;;4.57;3.80;;;;;;;0.66;77.08;99415.27;115160;1193;64388;-89
2021/04/16 03:06:17;;;;;;;6.00;4.15;;;;;;;0.65;77.35;99431.09;114676;1193;64365;-90
2021/04/16 03:08:44;;;;;;;6.40;4.00;;;;;;;0.66;77.22;99436.30;115327;1193;64327;-90
2021/04/16 03:11:11;;;;;;;4.73;3.90;;;;;;;0.66;76.77;99438.93;115340;1193;64349;-87
2021/04/16 03:13:38;;;;;;;4.90;4.00;;;;;;;0.66;76.63;99444.19;114667;1193;63188;-94
2021/04/16 03:16:05;;;;;;;4.20;3.80;;;;;;;0.67;77.26;99439.79;115017;1193;64439;-91
2021/04/16 03:18:32;;;;;;;3.70;3.30;;;;;;;0.66;77.12;99444.19;115002;1193;64346;-89
2021/04/16 03:20:58;;;;;;;5.30;4.20;;;;;;;0.65;77.42;99436.35;114925;1193;64343;-89
2021/04/16 03:23:25;;;;;;;6.27;3.90;;;;;;;0.65;77.56;99450.35;114813;1193;64435;-89
2021/04/16 03:25:51;;;;;;;5.30;4.30;;;;;;;0.64;76.99;99448.63;114773;1193;64366;-87
2021/04/16 03:28:18;;;;;;;5.10;4.03;;;;;;;0.63;77.43;99449.50;115082;1193;64294;-90
2021/04/16 03:30:45;;;;;;;3.77;2.93;;;;;;;0.64;77.37;99448.63;114304;1193;64414;-92
2021/04/16 03:33:11;;;;;;;6.30;4.40;;;;;;;0.64;77.10;99451.26;114657;1193;64407;-88
2021/04/16 03:35:38;;;;;;;4.83;3.97;;;;;;;0.64;76.65;99451.26;114673;1193;64324;-90
2021/04/16 03:38:04;;;;;;;6.40;4.05;;;;;;;0.64;77.01;99439.89;114532;1193;64291;-89
2021/04/16 03:40:32;;;;;;;5.63;4.17;;;;;;;0.63;76.95;99446.88;114559;1193;64384;-90
2021/04/16 03:42:59;;;;;;;5.97;4.00;;;;;;;0.63;77.45;99452.13;114642;1193;64449;-88
2021/04/16 03:45:27;;;;;;;3.95;3.55;;;;;;;0.62;76.79;99446.92;114640;1193;64349;-90
2021/04/16 03:47:53;;;;;;;4.13;3.40;;;;;;;0.61;77.47;99451.32;114739;1195;64407;-88
2021/04/16 03:50:23;;;;;;;4.80;4.00;;;;;;;0.60;77.67;99441.72;115135;1193;64251;-87
2021/04/16 03:52:50;;;;;;;5.15;4.10;;;;;;;0.59;77.11;99447.02;116048;1193;64295;-89
2021/04/16 03:55:20;;;;;;;4.90;4.17;;;;;;;0.60;77.22;99448.73;115928;1193;64729;-91
2021/04/16 03:57:46;;;;;;;4.87;3.93;;;;;;;0.60;77.36;99451.37;114860;1193;64304;-88
2021/04/16 04:00:18;;;;;;;5.50;3.65;;;;;;;0.61;77.72;99448.69;114792;1193;64330;-90
2021/04/16 04:02:45;;;;;;;5.27;4.37;;;;;;;0.61;76.83;99446.06;114978;1193;64394;-86
2021/04/16 04:05:16;;;;;;;5.53;4.23;;;;;;;0.63;76.96;99451.27;114623;1193;64426;-89
2021/04/16 04:07:42;;;;;;;4.77;4.10;;;;;;;0.63;77.09;99446.02;114884;1193;64356;-88
2021/04/16 04:10:09;;;;;;;6.30;4.70;;;;;;;0.61;77.56;99443.44;115292;1193;64285;-92
2021/04/16 04:12:36;;;;;;;8.55;4.80;;;;;;;0.61;77.32;99438.18;115511;1193;64388;-88
2021/04/16 04:15:05;;;;;;;8.97;5.47;;;;;;;0.63;76.77;99443.39;114877;1193;64363;-90
2021/04/16 04:17:34;;;;;;;7.70;4.10;;;;;;;0.66;77.20;99441.56;115192;1193;64353;-90
2021/04/16 04:20:04;;;;;;;6.30;4.20;;;;;;;0.69;76.77;99446.72;115608;1193;64371;-90
2021/04/16 04:22:30;;;;;;;4.80;3.20;;;;;;;0.72;76.66;99445.80;115705;1191;64410;-90
2021/04/16 04:24:57;;;;;;;5.25;3.60;;;;;;;0.72;77.47;99437.91;115379;1193;64377;-92
2021/04/16 04:27:24;;;;;;;8.70;4.13;;;;;;;0.72;77.55;99444.03;115546;1193;64327;-92
2021/04/16 04:29:50;;;;;;;5.27;4.30;;;;;;;0.74;76.68;99447.47;115502;1192;64419;-90
2021/04/16 04:32:17;;;;;;;6.63;4.07;;;;;;;0.75;77.37;99443.94;115734;1193;64781;-92
2021/04/16 04:34:43;;;;;;;5.53;4.23;;;;;;;0.76;77.41;99444.80;115119;1193;64371;-88
2021/04/16 04:37:11;;;;;;;7.93;4.47;;;;;;;0.77;76.69;99442.16;116618;1193;62590;-91
2021/04/16 04:39:43;;;;;;;6.50;4.23;;;;;;;0.78;76.57;99446.50;117513;1193;63166;-91
2021/04/16 04:42:11;;;;;;;5.25;4.05;;;;;;;0.81;76.72;99450.80;117280;1193;63076;-89
2021/04/16 04:44:38;;;;;;;5.10;4.00;;;;;;;0.85;77.03;99454.23;117656;1193;63237;-93
2021/04/16 04:47:08;;;;;;;4.60;3.93;;;;;;;0.87;77.57;99463.79;117721;1193;64116;-92
2021/04/16 04:49:36;;;;;;;6.93;3.23;;;;;;;0.93;76.75;99454.88;117805;1193;63140;-91
2021/04/16 04:52:13;;;;;;;6.83;3.97;;;;;;;0.93;76.58;99453.11;117682;1191;63109;-90
2021/04/16 04:54:45;;;;;;;5.50;3.20;;;;;;;0.93;76.95;99455.73;117610;1193;64420;-91
2021/04/16 04:57:12;;;;;;;7.93;4.10;;;;;;;0.91;76.95;99469.84;117722;1193;62844;-84
2021/04/16 04:59:40;;;;;;;10.13;5.37;;;;;;;0.91;76.88;99464.58;118569;1159;62924;-87
2021/04/16 05:02:08;;;;;;;7.00;4.27;;;;;;;0.94;76.95;99469.75;118200;1160;62816;-82
2021/04/16 05:04:34;;;;;;;6.37;3.60;;;;;;;0.94;76.95;99464.48;117567;1193;64298;-90
2021/04/16 05:07:01;;;;;;;6.77;3.50;;;;;;;0.95;77.30;99460.95;117161;1192;63537;-89
2021/04/16 05:09:28;;;;;;;4.53;3.10;;;;;;;0.93;77.41;99454.88;117095;1193;64356;-87
2021/04/16 05:11:54;;;;;;;5.60;3.80;;;;;;;0.93;77.22;99446.98;117720;1193;64165;-92
2021/04/16 05:14:21;;;;;;;7.50;4.40;;;;;;;0.94;77.27;99453.97;117312;1193;64446;-93
2021/04/16 05:16:48;;;;;;;5.60;3.50;;;;;;;0.93;76.80;99449.62;117065;1193;63073;-90
2021/04/16 05:19:15;;;;;;;4.20;3.00;;;;;;;0.93;76.99;99453.11;117083;1193;64404;-88
2021/04/16 05:21:42;;;;;;;4.10;3.23;;;;;;;0.95;77.23;99461.81;117380;1193;63054;-91
2021/04/16 05:24:10;;;;;;;4.65;3.15;;;;;;;0.97;77.39;99459.16;117372;1193;64622;-90
2021/04/16 05:26:39;;;;;;;4.30;3.07;;;;;;;0.97;77.06;99454.77;117364;1193;64260;-90
2021/04/16 05:29:07;;;;;;;5.63;2.57;;;;;;;0.95;77.65;99466.20;116030;1193;64288;-88
2021/04/16 05:31:34;;;;;;;3.30;2.80;;;;;;;0.94;77.04;99467.98;115654;1193;64340;-90
2021/04/16 05:34:02;;;;;;;4.73;3.43;;;;;;;0.93;77.02;99476.77;115705;1193;64363;-89
2021/04/16 05:36:29;;;;;;;9.37;4.43;;;;;;;0.93;77.55;99468.89;115206;1193;64298;-87
2021/04/16 05:38:56;;;;;;;8.00;4.60;;;;;;;0.94;77.52;99464.48;115713;1193;64371;-86
2021/04/16 05:41:23;;;;;;;4.80;3.20;;;;;;;0.95;77.50;99472.33;114979;1193;64368;-90
2021/04/16 05:43:49;;;;;;;5.43;3.93;;;;;;;0.95;77.47;99477.59;117322;1193;63071;-89
2021/04/16 05:46:16;;;;;;;5.20;3.30;;;;;;;1.01;77.70;99471.30;116685;1194;64029;-88
2021/04/16 05:48:43;;;;;;;6.45;3.65;;;;;;;1.02;77.43;99471.29;115660;1193;64371;-88
2021/04/16 05:51:10;;;;;;;5.60;3.20;;;;;;;1.04;77.32;99468.61;115325;1193;63035;-90
2021/04/16 05:53:38;;;;;;;5.03;2.93;;;;;;;1.07;77.68;99479.03;115017;1193;64366;-89
2021/04/16 05:56:06;;;;;;;3.93;2.63;;;;;;;1.08;77.76;99472.86;115000;1193;64404;-88
2021/04/16 05:58:33;;;;;;;5.57;3.17;;;;;;;1.07;77.41;99477.27;115062;1193;64464;-88
2021/04/16 06:00:59;;;;;;;4.80;3.25;;;;;;;1.09;77.85;99479.88;115122;1193;64359;-87
2021/04/16 06:03:26;;;;;;;7.75;3.20;;;;;;;1.10;77.79;99478.97;114402;1193;64356;-89
2021/04/16 06:05:54;;;;;;;6.33;3.80;;;;;;;1.08;77.84;99471.13;115117;1193;64350;-91
2021/04/16 06:08:21;;;;;;;3.57;3.10;;;;;;;1.08;78.10;99471.13;115133;1193;64406;-89
2021/04/16 06:10:48;;;;;;;5.60;2.90;;;;;;;1.10;77.70;99475.48;115023;1193;64374;-89
2021/04/16 06:13:15;;;;;;;7.20;3.93;;;;;;;1.11;77.26;99482.46;114916;1193;64363;-91
2021/04/16 06:15:42;;;;;;;7.17;4.40;;;;;;;1.11;77.54;99488.58;115393;1194;64312;-87
2021/04/16 06:18:09;;;;;;;7.07;5.03;;;;;;;1.15;77.56;99474.45;116137;1193;64368;-85
2021/04/16 06:20:35;;;;;;;8.70;4.60;;;;;;;1.19;77.62;99481.34;116077;1193;64407;-90
2021/04/16 06:23:02;;;;;;;10.50;5.50;;;;;;;1.21;77.34;99478.66;116012;1193;64443;-88
2021/04/16 06:25:32;;;;;;;11.45;4.60;;;;;;;1.23;77.70;99475.09;115630;1193;64301;-86
2021/04/16 06:28:01;;;;;;;11.23;5.57;;;;;;;1.26;77.78;99476.77;115010;1193;65965;-87
2021/04/16 06:30:28;;;;;;;9.05;4.85;;;;;;;1.28;77.06;99472.34;114825;1193;64385;-90
2021/04/16 06:33:01;;;;;;;8.30;4.70;;;;;;;1.34;77.54;99475.67;114899;1193;64324;-87
2021/04/16 06:35:29;;;;;;;8.70;5.00;;;;;;;1.37;77.69;99476.48;115286;1193;64360;-87
2021/04/16 06:37:56;;;;;;;5.55;4.00;;;;;;;1.37;77.28;99473.84;115483;1193;64471;-86
2021/04/16 06:40:23;;;;;;;11.80;6.05;;;;;;;1.39;77.72;99482.55;115303;1193;64299;-89
2021/04/16 06:42:50;;;;;;;7.00;4.30;;;;;;;1.44;77.50;99480.66;114906;1193;64302;-88
2021/04/16 06:45:22;;;;;;;7.15;5.10;;;;;;;1.46;77.43;99487.59;114447;1193;64324;-90
2021/04/16 06:47:58;;;;;;;11.93;6.67;;;;;;;1.48;77.51;99480.53;114547;1193;64459;-89
2021/04/16 06:50:28;;;;;;;11.20;4.95;;;;;;;1.52;78.21;99489.19;114742;1193;64359;-89
2021/04/16 06:53:14;;;;;;;10.25;5.75;;;;;;;1.50;77.74;99486.61;114420;1193;64452;-88
2021/04/16 06:56:14;;;;;;;9.57;6.07;;;;;;;1.50;77.62;99493.65;114916;1193;64366;-89
2021/04/16 06:58:55;;;;;;;10.50;5.50;;;;;;;1.50;77.25;99491.02;114521;1195;64318;-88
2021/04/16 07:01:31;;;;;;;7.57;5.27;;;;;;;1.48;77.20;99493.70;114649;1193;64812;-86
2021/04/16 07:04:24;;;;;;;12.40;7.00;;;;;;;1.51;77.54;99485.70;114572;1193;64355;-88
2021/04/16 07:06:55;;;;;;;9.17;6.00;;;;;;;1.55;77.31;99489.13;114666;1193;64440;-87
2021/04/16 07:09:40;;;;;;;8.10;5.30;;;;;;;1.58;77.58;99489.02;114744;1193;64475;-89
2021/04/16 07:12:15;;;;;;;13.05;7.00;;;;;;;1.62;77.04;99491.53;115203;1193;64359;-90
2021/04/16 07:14:50;;;;;;;8.15;6.60;;;;;;;1.68;77.11;99485.23;115010;1193;64395;-89
2021/04/16 07:17:22;;;;;;;6.85;4.38;;;;;;;1.73;77.17;99488.59;115309;1193;64474;-88
2021/04/16 07:19:51;;;;;;;8.07;5.50;;;;;;;1.73;77.04;99493.00;115205;1193;64394;-90
2021/04/16 07:22:30;;;;;;;12.17;7.47;;;;;;;1.74;77.27;99494.72;115054;1193;64356;-88
2021/04/16 07:24:58;;;;;;;7.75;4.70;;;;;;;1.72;77.27;99505.30;115088;1193;64478;-88
2021/04/16 07:27:43;;;;;;;6.93;3.90;;;;;;;1.66;77.29;99497.58;114906;1194;64394;-90
2021/04/16 07:30:42;;;;;;;6.33;4.33;;;;;;;1.66;77.38;99502.84;115069;1193;64577;-88
2021/04/16 07:33:32;;;;;;;7.95;4.90;;;;;;;1.66;77.34;99494.95;114965;1196;64384;-91
2021/04/16 07:36:44;;;;;;;5.87;4.47;;;;;;;1.68;77.20;99506.28;115082;1193;64436;-89
2021/04/16 07:39:16;;;;;;;6.20;5.23;;;;;;;1.73;77.67;99509.66;115072;1196;64420;-88
2021/04/16 07:41:49;;;;;;;7.87;4.87;;;;;;;1.78;77.36;99505.13;115312;1193;64363;-87
2021/04/16 07:44:38;;;;;;;12.25;8.65;;;;;;;1.87;77.04;99496.94;115187;1193;64468;-90
2021/04/16 07:47:08;;;;;;;12.70;6.77;;;;;;;2.00;77.15;99492.17;115265;1193;64493;-89
2021/04/16 07:49:38;;;;;;;14.07;6.50;;;;;;;2.06;76.69;99494.61;114911;1193;64446;-88
2021/04/16 07:52:26;;;;;;;8.10;4.27;;;;;;;2.09;77.03;99505.05;115345;1193;64359;-88
2021/04/16 07:55:03;;;;;;;7.57;4.93;;;;;;;2.12;77.02;99497.06;115051;1193;64295;-88
2021/04/16 07:57:31;;;;;;;8.35;4.90;;;;;;;2.12;76.68;99493.56;114967;1193;64375;-90
2021/04/16 08:00:03;;;;;;;7.40;4.80;;;;;;;2.19;77.30;99496.88;115371;1193;64446;-90
2021/04/16 08:02:54;;;;;;;11.43;5.90;;;;;;;2.21;76.65;99501.17;115256;1193;64451;-86
2021/04/16 08:05:24;;;;;;;13.33;6.47;;;;;;;2.22;76.62;99497.63;116076;1193;64736;-91
2021/04/16 08:08:25;;;;;;;10.40;5.85;;;;;;;2.22;76.88;99496.77;115251;1193;64910;-88
2021/04/16 08:11:15;;;;;;;13.50;7.00;;;;;;;2.25;77.18;99494.91;115380;1193;64433;-89
2021/04/16 08:13:42;;;;;;;8.60;5.95;;;;;;;2.28;76.81;99491.30;115567;1196;64349;-89
2021/04/16 08:16:12;;;;;;;9.10;5.70;;;;;;;2.33;77.09;99484.98;115518;1195;64244;-90
2021/04/16 08:19:00;;;;;;;8.73;5.70;;;;;;;2.38;76.52;99488.34;115722;1193;64375;-91
2021/04/16 08:21:27;;;;;;;;;;;;;;;2.47;76.82;99489.80;115580;1200;63224;-90
2021/04/16 08:24:05;;;;;;;7.57;4.57;;;;;;;2.52;76.75;99490.52;114931;1193;64394;-88
2021/04/16 08:26:38;;;;;;;7.03;4.20;;;;;;;2.54;76.75;99487.83;114922;1193;64343;-88
2021/04/16 08:29:29;;;;;;;6.70;4.10;;;;;;;2.52;76.42;99487.89;115011;1193;64324;-88
2021/04/16 08:32:04;;;;;;;12.40;4.87;;;;;;;2.47;76.40;99487.17;115556;1193;64372;-90
2021/04/16 08:34:47;;;;;;;6.33;3.70;;;;;;;2.53;76.56;99486.97;115394;1193;64349;-90
2021/04/16 08:37:24;;;;;;;7.97;4.93;;;;;;;2.60;76.95;99490.27;114888;1193;64455;-90
2021/04/16 08:39:53;;;;;;;8.25;4.50;;;;;;;2.71;76.74;99490.78;115429;1193;64340;-91
2021/04/16 08:42:31;;;;;;;12.00;5.93;;;;;;;2.85;76.80;99488.54;116002;1193;64308;-88
2021/04/16 08:45:27;;;;;;;9.70;5.13;;;;;;;2.94;76.61;99490.02;115787;1193;64269;-85
2021/04/16 08:48:14;;;;;;;7.95;4.80;;;;;;;2.98;76.35;99495.12;115719;1193;64029;-89
2021/04/16 08:50:52;;;;;;;5.95;3.90;;;;;;;2.91;76.19;99503.30;115613;1193;64455;-90
2021/04/16 08:53:20;;;;;;;10.57;5.00;;;;;;;2.90;76.52;99502.44;115445;1193;63136;-88
2021/04/16 08:55:51;;;;;;;7.17;4.63;;;;;;;2.94;76.04;99493.52;115530;1196;64295;-90
2021/04/16 08:58:35;;;;;;;6.17;3.73;;;;;;;2.90;76.27;99496.30;115066;1193;64545;-89
2021/04/16 09:01:07;;;;;;;7.57;4.57;;;;;;;2.87;76.67;99496.42;115678;1193;64184;-89
2021/04/16 09:03:54;;;;;;;10.57;5.87;;;;;;;2.83;76.23;99500.93;114997;1193;64365;-90
2021/04/16 09:06:30;;;;;;;11.60;9.30;;;;;;;2.88;76.46;99504.28;115002;1193;64369;-89
2021/04/16 09:09:02;;;;;;;6.25;4.30;;;;;;;2.88;76.57;99506.05;114865;1193;64851;-86
2021/04/16 09:11:44;;;;;;;6.50;3.97;;;;;;;2.85;76.37;99507.00;114984;1193;64899;-88
2021/04/16 09:14:34;;;;;;;9.03;4.33;;;;;;;2.85;76.85;99508.78;115068;1193;64775;-90
2021/04/16 09:17:08;;;;;;;5.83;3.90;;;;;;;2.89;76.33;99506.00;115230;1196;64317;-88
2021/04/16 09:19:56;;;;;;;11.85;4.50;;;;;;;2.86;76.51;99503.48;115127;1196;64440;-90
2021/04/16 09:22:33;;;;;;;13.37;6.20;;;;;;;2.93;76.68;99498.86;115672;1193;64279;-90
2021/04/16 09:25:02;;;;;;;9.33;5.17;;;;;;;3.07;76.63;99499.23;116011;1193;64500;-89
2021/04/16 09:27:31;;;;;;;11.97;5.30;;;;;;;3.21;76.08;99501.39;115326;1196;65679;-91
2021/04/16 09:30:06;;;;;;;12.33;7.43;;;;;;;3.33;76.22;99506.24;115910;1193;64282;-88
2021/04/16 09:32:52;;;;;;;14.67;7.07;;;;;;;3.56;75.90;99507.17;116131;1193;64286;-90
2021/04/16 09:35:22;;;;;;;13.90;7.50;;;;;;;3.76;75.45;99512.62;115399;1193;64173;-87
2021/04/16 09:37:51;;;;;;;11.03;6.13;;;;;;;4.00;75.21;99502.88;115814;1193;64330;-90
2021/04/16 09:40:25;;;;;;;17.00;8.50;;;;;;;4.24;74.89;99506.37;116116;1193;64205;-89
2021/04/16 09:43:21;;;;;;;11.20;5.45;;;;;;;4.24;75.15;99501.08;115449;1194;64305;-89
2021/04/16 09:45:52;;;;;;;11.30;6.40;;;;;;;4.12;75.31;99512.13;115940;1193;63207;-90
2021/04/16 09:48:23;;;;;;;17.90;8.30;;;;;;;4.02;75.14;99515.14;115510;1193;64170;-86
2021/04/16 09:51:10;;;;;;;29.97;12.00;;;;;;;3.88;75.55;99520.09;115413;1196;64388;-87
2021/04/16 09:53:38;;;;;;;27.33;13.30;;;;;;;3.78;75.88;99516.05;116316;1193;64292;-91
2021/04/16 09:56:19;;;;;;;29.27;13.27;;;;;;;3.80;75.71;99517.70;116692;1193;63192;-93
2021/04/16 09:58:49;;;;;;;17.65;9.10;;;;;;;3.80;75.96;99522.13;115817;1193;64253;-90
2021/04/16 10:01:26;;;;;;;11.23;7.13;;;;;;;3.64;75.83;99521.84;115851;1193;64362;-91
2021/04/16 10:03:59;;;;;;;13.87;8.03;;;;;;;3.56;76.11;99517.73;115840;1195;64369;-87
2021/04/16 10:06:28;;;;;;;8.73;6.30;;;;;;;3.56;76.06;99517.73;117056;1196;64311;-88
2021/04/16 10:09:11;;;;;;;8.15;5.80;;;;;;;3.41;75.73;99520.02;115194;1196;64518;-88
2021/04/16 10:11:47;;;;;;;10.05;6.80;;;;;;;3.36;76.35;99521.95;116144;1186;63563;-92
2021/04/16 10:14:21;;;;;;;13.93;8.03;;;;;;;3.33;76.09;99523.86;115606;1196;64320;-87
2021/04/16 10:16:59;;;;;;;10.00;7.00;;;;;;;3.36;76.15;99511.40;115454;1195;62624;-90
2021/04/16 10:19:31;;;;;;;13.50;8.30;;;;;;;3.38;76.19;99522.79;115949;1196;64484;-86
2021/04/16 10:22:30;;;;;;;10.30;7.35;;;;;;;3.36;76.31;99516.67;115335;1193;64416;-87
2021/04/16 10:41:03;;;;;;;11.10;7.40;;;;;;;3.24;76.50;99522.38;115008;1193;64342;-89
2021/04/16 10:49:51;;;;;;;14.00;8.85;;;;;;;3.09;76.87;99522.93;114806;1193;64398;-89
2021/04/16 12:39:11;;;;;;;25.95;15.80;;;;;;;3.45;76.96;99516.37;114406;1196;64432;-89
2021/04/16 12:41:44;;;;;;;24.80;13.83;;;;;;;3.46;77.15;99522.51;114807;1196;64356;-92
2021/04/16 12:44:51;;;;;;;18.00;12.93;;;;;;;3.47;76.86;99524.23;114989;1195;64369;-91
2021/04/16 12:47:28;;;;;;;21.60;12.67;;;;;;;3.41;76.91;99513.88;114924;1196;64455;-88
2021/04/16 12:49:55;;;;;;;18.20;11.43;;;;;;;3.31;76.80;99513.37;114955;1195;64478;-89
2021/04/16 12:52:23;;;;;;;20.85;13.40;;;;;;;3.29;77.13;99515.17;114969;1195;64580;-89
2021/04/16 12:54:52;;;;;;;22.75;12.20;;;;;;;3.34;77.42;99520.30;115059;1195;64445;-84
2021/04/16 12:57:27;;;;;;;18.47;11.33;;;;;;;3.34;77.05;99515.88;114307;1196;64486;-92
2021/04/16 12:59:54;;;;;;;20.05;11.40;;;;;;;3.30;77.08;99510.75;114533;1196;64372;-87
2021/04/16 13:02:25;;;;;;;19.63;11.23;;;;;;;3.24;77.30;99514.47;114950;1194;64452;-85
2021/04/16 13:04:55;;;;;;;17.80;11.85;;;;;;;3.20;77.39;99511.09;115226;1196;64289;-89
2021/04/16 13:07:22;;;;;;;24.33;13.47;;;;;;;3.15;77.14;99506.88;116306;1194;63107;-92
2021/04/16 13:09:48;;;;;;;24.30;14.65;;;;;;;3.17;77.67;99513.82;116978;1195;64243;-91
2021/04/16 13:12:15;;;;;;;23.20;14.80;;;;;;;3.21;77.50;99506.67;116927;1196;63773;-90
2021/04/16 13:14:42;;;;;;;33.90;18.90;;;;;;;3.25;77.38;99503.02;115510;1195;64613;-92
2021/04/16 13:17:14;;;;;;;28.70;16.15;;;;;;;3.29;77.34;99498.48;116465;1195;64433;-89
2021/04/16 13:19:43;;;;;;;24.60;15.30;;;;;;;3.31;77.20;99486.97;116008;1196;64240;-90
2021/04/16 13:22:20;;;;;;;21.83;13.83;;;;;;;3.31;77.22;99489.61;115986;1195;64467;-90
2021/04/16 13:24:48;;;;;;;27.70;16.30;;;;;;;3.29;77.36;99501.98;116703;1194;64416;-91
2021/04/16 13:27:21;;;;;;;29.55;16.40;;;;;;;3.31;77.40;99489.61;116080;1196;63602;-90
2021/04/16 13:29:48;;;;;;;24.83;14.63;;;;;;;3.30;77.25;99487.86;115630;1196;64378;-89
2021/04/16 13:32:20;;;;;;;26.17;14.57;;;;;;;3.32;77.37;99493.97;115560;1196;64358;-92
2021/04/16 13:34:56;;;;;;;30.70;15.55;;;;;;;3.36;77.12;99497.34;115452;1196;63668;-90
2021/04/16 13:37:31;;;;;;;30.40;14.30;;;;;;;3.37;77.14;99492.03;115346;1196;64398;-90
2021/04/16 13:39:57;;;;;;;27.70;14.50;;;;;;;3.38;77.22;99493.75;115786;1195;64400;-92
2021/04/16 13:42:25;;;;;;;27.37;13.73;;;;;;;3.40;77.22;99494.55;116552;1196;64349;-85
2021/04/16 13:44:52;;;;;;;30.70;17.80;;;;;;;3.42;77.09;99487.42;116772;1194;64420;-89
2021/04/16 13:47:26;;;;;;;26.17;14.53;;;;;;;3.43;77.05;99483.86;116787;1195;64247;-90
2021/04/16 13:49:59;;;;;;;25.45;13.10;;;;;;;3.44;77.14;99485.61;116481;1195;64411;-93
2021/04/16 13:52:27;;;;;;;27.30;15.23;;;;;;;3.45;77.15;99489.11;116619;1195;64257;-91
2021/04/16 13:54:54;;;;;;;21.75;13.60;;;;;;;3.51;77.13;99487.11;116172;1196;64247;-90
2021/04/16 13:57:21;;;;;;;20.37;12.17;;;;;;;3.58;77.21;99492.16;115125;1194;64398;-90
2021/04/16 14:00:15;;;;;;;21.35;13.00;;;;;;;3.58;77.02;99486.88;115474;1194;64292;-89